MyFlightRoute - Storm Chaser


To sort multiple columns, hold SHIFT key while clicking column header

ICAOVisibilityWindSpeedGustCeilingWeatherTempDew PointSpreadFlight CategoryMETAR
KABQ10.004 18.90-16.7035.6VFRKABQ 110252Z 05004KT 10SM CLR 19/M17 A2983 RMK AO2 SLP050 T01891167 53003 $
KAMA10.0011 13.30-6.1019.4VFRKAMA 110253Z 15011KT 10SM CLR 13/M06 A2979 RMK AO2 SLP064 T01331061 53000
KAPA10.000 12.80-13.3026.1VFRKAPA 110253Z 00000KT 10SM FEW110 FEW140 13/M13 A2975 RMK AO2 SLP052 T01281133 53006
KASE10.005 3.30-10.6013.9VFRKASE 110253Z AUTO 17005KT 10SM CLR 03/M11 A2991 RMK AO2 SLP081 T00331106 53008
KBFI10.006 75007.20-2.209.4VFRKBFI 110253Z VRB06KT 10SM BKN075 BKN090 07/M02 A3031 RMK AO2 SLP263 T00721022 52014
KBFL10.003 21.101.1020VFRKBFL 110254Z 23003KT 10SM CLR 21/01 A2992 RMK AO2 SLP128 T02110011 55003
KBIL1.7512 1000LIGHT SNOW MIST 0.60-1.101.7IFRKBIL 110253Z 34012KT 1 3/4SM -SN BR OVC010 01/M01 A2984 RMK AO2 PK WND 34040/0209 RAB04E16SNB12 SLP117 P0002 60002 T00061011 53072
KBOI10.001931 7.80-8.3016.1VFRKBOI 110253Z 34019G31KT 10SM CLR 08/M08 A2999 RMK AO2 PK WND 34031/0248 SLP156 T00781083 53027
KBUR10.006 18.907.8011.1VFRKBUR 110253Z 13006KT 10SM CLR 19/08 A2981 RMK AO2 SLP085 T01890078 53002 $
KBZN9.001723 40002.20-7.8010VFRKBZN 110256Z 29017G23KT 9SM BKN040 OVC055 02/M08 A2990 RMK AO2 SNE31 SLP130 P0000 60000 T00221078 51050
KCMA7.000 15.009.405.6VFRKCMA 110255Z 00000KT 7SM CLR 15/09 A2981 RMK AO2 SLP103 T01500094 56002
KCNO10.008 17.208.308.9VFRKCNO 110253Z 28008KT 10SM SCT250 17/08 A2983 RMK AO2 SLP098 T01720083 53010
KCOS10.006 1500010.60-11.7022.3VFRKCOS 110254Z 15006KT 10SM BKN150 11/M12 A2982 RMK AO2 SLP076 T01061117 53009
KCPR10.0014 10.00-8.9018.9VFRKCPR 110253Z AUTO 27014KT 10SM CLR 10/M09 A2963 RMK AO2 SLP009 T01001089 53009
KCRQ8.003 15.0011.703.3VFRKCRQ 110253Z 21003KT 8SM CLR 15/12 A2985 RMK AO2 SLP106 T01500117 53005
KDEN10.008 12.20-11.1023.3VFRKDEN 110253Z 12008KT 10SM FEW120 FEW220 12/M11 A2973 RMK AO2 SLP035 T01221111 53006
KEGE10.0012 11.10-13.9025VFRKEGE 110256Z AUTO 22012KT 10SM CLR 11/M14 A2987 RMK AO2 SLP113 6//// T01111139 53004 PNO $
KELP10.001220 26.70-13.9040.6VFRKELP 110251Z 29012G20KT 10SM FEW250 27/M14 A2978 RMK AO2 PK WND 28026/0220 SLP024 T02671139 53005
KEMT10.006 22.007.0015VFRKEMT 110147Z 21006KT 10SM CLR 22/07 A2981
KEUG10.008 65007.80-1.108.9VFRKEUG 110254Z 33008KT 10SM BKN065 08/M01 A3031 RMK AO2 SLP266 T00781011 51003
KFAT10.006 22.806.7016.1VFRKFAT 110253Z 32006KT 10SM CLR 23/07 A2991 RMK AO2 SLP124 T02280067 $
KFLG10.007 11.10-10.6021.7VFRKFLG 110257Z 22007KT 10SM CLR 11/M11 A3000 RMK AO2 SLP084 T01111106 53005
KFMN10.009 15.00-21.7036.7VFRKFMN 110253Z 30009KT 10SM CLR 15/M22 A2986 RMK AO2 SLP087 T01501217 53005
KFUL10.005 2000017.2011.705.5VFRKFUL 110253Z 18005KT 10SM BKN200 17/12 A2982 RMK AO2 SLP097 T01720117 53006
KGCN10.000 5.60-12.8018.4VFRKGCN 110254Z AUTO 00000KT 10SM CLR 06/M13 A2997 RMK AO2 SLP111 T00561128 53003 TSNO
KGEG10.009 3.90-9.4013.3VFRKGEG 110253Z 35009KT 10SM FEW065 SCT080 04/M09 A3006 RMK AO2 SLP194 VIRGA T00391094 53024
KGJT10.005 16.10-14.4030.5VFRKGJT 110253Z 24005KT 10SM CLR 16/M14 A2978 RMK AO2 SLP048 T01611144 55002
KGPI10.004 120001.10-6.107.2VFRKGPI 110255Z 22004KT 10SM SCT055 SCT075 BKN120 01/M06 A2996 RMK AO2 SLP164 T00111061 53031
KHHR10.006 15.6010.005.6VFRKHHR 110253Z 24006KT 10SM CLR 16/10 A2983 RMK AO2 SLP100 T01560100 53001
KHLN10.001427 2.80-12.2015VFRKHLN 110253Z 29014G27KT 10SM CLR 03/M12 A2988 RMK AO2 PK WND 29032/0235 SLP150 T00281122 51038
KHND10.008 26.70-16.1042.8VFRKHND 110256Z 26008KT 10SM CLR 27/M16 A2977 RMK AO2 SLP077 T02671161 55002
KIFP10.000 29.00-13.0042VFRKIFP 110255Z AUTO 00000KT 10SM CLR 29/M13 A2966 RMK AO2
KINS10.008 21.30-19.9041.2VFRKINS 110258Z AUTO 26008KT 10SM CLR 21/M20 A2980 RMK AO2 SLP060 T02131199 53001 $
KJAC10.001928 6.70-8.9015.6VFRKJAC 110256Z AUTO 25019G28KT 10SM CLR 07/M09 A2973 RMK AO2 PK WND 23036/0205 SLP084 T00671089 55003
KLAS10.007 27.20-17.2044.4VFRKLAS 110256Z 26007KT 10SM FEW250 27/M17 A2974 RMK AO2 SLP049 T02721172 55003
KLAX10.005 2000015.6010.005.6VFRKLAX 110253Z 25005KT 10SM BKN200 16/10 A2983 RMK AO2 SLP100 T01560100 55001
KLGB10.007 18.307.8010.5VFRKLGB 110253Z 30007KT 10SM CLR 18/08 A2982 RMK AO2 SLP098 T01830078 53003
KLSV10.005 28.20-15.1043.3VFRKLSV 110258Z AUTO 25005KT 10SM CLR 28/M15 A2971 RMK AO2 SLP043 T02821151 55002 $
KMFR10.0013 10.00-1.1011.1VFRKMFR 110253Z 31013KT 10SM CLR 10/M01 A3018 RMK AO2 SLP224 T01001011 51009
KMHV10.002533 17.000.0017VFRKMHV 110240Z AUTO 30025G33KT 10SM CLR 17/M00 A2984 RMK A01
KMRY10.006 12.206.705.5VFRKMRY 110254Z 24006KT 10SM FEW016 12/07 A3002 RMK AO2 SLP178 T01220067 55004
KMSO10.004 0.00-4.404.4VFRKMSO 110253Z 35004KT 10SM CLR 00/M04 A3002 RMK AO2 SLP186 60000 T00001044 51035
KMYF8.005 15.0011.103.9VFRKMYF 110253Z 21005KT 8SM CLR 15/11 A2986 RMK AO2 SLP109 T01500111 53008
KNYL10.009 28.30-3.9032.2VFRKNYL 110257Z AUTO 20009KT 10SM CLR 28/M04 A2967 RMK AO2 SLP043 T02831039 53000 $
KOAK10.0020 12.207.205VFRKOAK 110253Z 27020KT 10SM FEW180 FEW250 12/07 A2999 RMK AO2 SLP154 T01220072 55003
KOLM10.004 6.70-2.809.5VFRKOLM 110254Z AUTO 25004KT 10SM SCT090 07/M03 A3029 RMK AO2 SLP259 T00671028 51012
KONT10.009 2500018.307.2011.1VFRKONT 110253Z 25009KT 10SM BKN250 18/07 A2982 RMK AO2 SLP091 T01830072 53010
KOTH10.0012 7.201.705.5VFRKOTH 110256Z 36012KT 10SM CLR 07/02 A3035 RMK AO2 SLP278 T00720017 56002
KOXR6.003 HAZE 12.8010.002.8VFRKOXR 110251Z 29003KT 6SM HZ CLR 13/10 A2981 RMK AO2 SLP093 T01280100 56003
KPAE10.006 85006.70-2.208.9VFRKPAE 110253Z VRB06KT 10SM BKN085 07/M02 A3030 RMK AO2 SLP264 T00671022 52011
KPDX10.0011 8.30-2.2010.5VFRKPDX 110253Z 31011KT 10SM FEW070 FEW200 08/M02 A3031 RMK AO2 SLP264 T00831022 53007
KPHX10.003 29.40-5.0034.4VFRKPHX 110251Z 21003KT 10SM FEW250 FEW290 29/M05 A2967 RMK AO2 SLP032 T02941050 55003
KPOC10.006 17.007.0010VFRKPOC 110247Z 21006KT 10SM CLR 17/07 A2984
KPRC10.007 15.00-8.3023.3VFRKPRC 110253Z 23007KT 10SM CLR 15/M08 A2991 RMK AO2 SLP075 T01501083 53002
KPSC10.0012 7.20-7.8015VFRKPSC 110253Z 31012KT 10SM CLR 07/M08 A3021 RMK AO2 PK WND 31026/0205 SLP231 T00721078 51020
KPSP10.0015 30.606.1024.5VFRKPSP 110253Z 32015KT 10SM CLR 31/06 A2968 RMK AO2 SLP046 T03060061 53000
KRAL10.005 18.908.9010VFRKRAL 110253Z 28005KT 10SM CLR 19/09 A2982 RMK AO2 SLP086 T01890089 53012
KRDD10.003 20.003.9016.1VFRKRDD 110253Z 03003KT 10SM CLR 20/04 A2988 RMK AO2 SLP115 T02000039 56012
KRIV10.003 17.308.408.9VFRKRIV 110258Z AUTO 33003KT 10SM CLR 17/08 A2984 RMK AO2 SLP099 T01730084 53014
KRNM10.005 12.8010.002.8VFRKRNM 110253Z 29005KT 10SM CLR 13/10 A2986 RMK AO2 SLP105 T01280100 53008
KRNO10.0013 18.30-2.8021.1VFRKRNO 110255Z 27013KT 10SM CLR 18/M03 A2995 RMK AO2 SLP114 T01831028 55001 $
KSAC10.008 20.006.7013.3VFRKSAC 110253Z 22008KT 10SM CLR 20/07 A2989 RMK AO2 SLP121 T02000067 56010
KSAN9.005 16.7011.705VFRKSAN 110251Z 20005KT 9SM FEW014 FEW140 SCT200 SCT250 17/12 A2988 RMK AO2 SLP116 T01670117 53006
KSBA10.005 15.009.405.6VFRKSBA 110253Z VRB05KT 10SM CLR 15/09 A2978 RMK AO2 SLP085 T01500094 56003
KSBD7.009 2500021.006.0015VFRKSBD 110255Z 26009KT 7SM BKN250 21/06 A2983
KSBP9.0010 10.607.203.4VFRKSBP 110256Z 30010KT 9SM CLR 11/07 A2992 RMK AO2 SLP132 T01060072 53003
KSDM8.005 90014.4010.004.4IFRKSDM 110253Z 26005KT 8SM BKN009 BKN015 14/10 A2987 RMK AO2 SLP112 T01440100 53008
KSEA10.0014 85007.80-1.108.9VFRKSEA 110253Z 01014KT 10SM SCT065 BKN085 BKN250 08/M01 A3029 RMK AO2 SLP266 T00781011 52010
KSEE10.008 16.0012.004VFRKSEE 110255Z AUTO 20008KT 10SM CLR 16/12 A2985 RMK AO2
KSFO10.001923 12.205.606.6VFRKSFO 110256Z 28019G23KT 10SM FEW014 SCT200 12/06 A2997 RMK AO2 PK WND 29029/0157 SLP149 T01220056 58005
KSJC10.008 15.605.0010.6VFRKSJC 110253Z 35008KT 10SM FEW100 SCT160 16/05 A2998 RMK AO2 SLP153 T01560050 53001
KSLC10.006 16.10-7.8023.9VFRKSLC 110254Z 22006KT 10SM CLR 16/M08 A2978 RMK AO2 SLP057 T01611078 56014
KSMF10.007 21.708.3013.4VFRKSMF 110253Z 19007KT 10SM CLR 22/08 A2988 RMK AO2 SLP118 T02170083 56009
KSMO10.000 15.6010.005.6VFRKSMO 110251Z 00000KT 10SM CLR 16/10 A2983 RMK AO2 SLP100 T01560100 53000
KSMX7.0011 10.006.703.3VFRKSMX 110251Z 29011KT 7SM CLR 10/07 A2993 RMK AO2 SLP138 T01000067 53004
KSNA9.005 16.7011.705VFRKSNA 110253Z 18005KT 9SM CLR 17/12 A2983 RMK AO2 SLP101 T01670117 53002
KSUN10.001831 6.00-10.0016VFRKSUN 110253Z 29018G31KT 10SM SKC 06/M10 A2984
KTOA10.005 17.009.008VFRKTOA 110247Z 22005KT 10SM SCT200 17/09 A2982 RMK LAST
KTPH10.0011 15.60-13.9029.5VFRKTPH 110256Z AUTO 34011KT 10SM CLR 16/M14 A2995 RMK AO2 SLP103 T01561139 55003
KTUS10.007 27.20-11.1038.3VFRKTUS 110253Z 26007KT 10SM CLR 27/M11 A2981 RMK AO2 SLP053 T02721111 53009
KVCV10.0010 0.000.000VFRKVCV 110045Z 26010KT 10SM SKC A2984
KVGT10.005 27.80-16.7044.5VFRKVGT 110253Z 29005KT 10SM CLR 28/M17 A2969 RMK AO2 SLP051 T02781167 55003
KVNY10.003 20.605.0015.6VFRKVNY 110251Z 10003KT 10SM CLR 21/05 A2980 RMK AO2 SLP086 T02060050 53004
KWHP10.007 19.005.0014VFRKWHP 110250Z 09007KT 10SM SKC 19/05 A2985
KWJF10.001627 17.20-2.8020VFRKWJF 110256Z 28016G27KT 10SM CLR 17/M03 A2987 RMK AO2 PK WND 28034/0236 SLP107 T01721028 53004
KYKM10.007 5.60-5.6011.2VFRKYKM 110253Z 31007KT 10SM SCT090 06/M06 A3022 RMK AO2 SLP239 T00561056 53015